Impacts TAF Board INFO
FOR SITUATIONAL AWARENESS. NOT TO BE USED FOR FLIGHT PLANNING PURPOSES.
IDs:

KATL - Atlanta/Hartsfield-J, GA, US

Issued at 1736 UTC 17 Jul 2018
Updated at 1933 UTC 17 Jul 2018
Potential Impact None Slight Moderate High
Time<<18/20Z 18/21Z 18/22Z 18/23Z 19/00Z 19/01Z 19/02Z 19/03Z 19/04Z 19/05Z 19/06Z 19/07Z 19/08Z
Type PRVL PRVL PRVL PRVL
VIS >6 >6 >6 >6
CIG -- -- -- --
Cover SCT SCT SCT SCT
FltCat VFR VFR VFR VFR
WX -- -- -- --
WDir 330 330 330 330
WSpd 8 8 8 8
WGst -- -- -- --

Raw TAF
KATL 171736Z 1718/1824 28006KT P6SM BKN035 BKN250
  TEMPO 1720/1724 VRB12G22KT 3SM TSRA BKN020CB
  FM180200 31005KT P6SM FEW045 SCT070
  FM181400 35006KT P6SM SCT035 SCT250
  FM181700 33008KT P6SM SCT045 SCT250


METAR Board
Radar Display
Forecast Discussion

FOR SITUATIONAL AWARENESS. NOT TO BE USED FOR FLIGHT PLANNING PURPOSES.